createdAt,value
2019-05-10T00:02:16.453Z,1.50
2019-05-10T00:04:42.685Z,3.00
2019-05-10T00:07:11.385Z,4.00
2019-05-10T00:09:15.375Z,1.23
2019-05-10T00:11:28.872Z,2.63
2019-05-10T00:13:36.031Z,2.70
2019-05-10T00:15:40.916Z,2.17
2019-05-10T00:17:46.804Z,2.67
2019-05-10T00:19:51.627Z,1.27
2019-05-10T00:21:56.289Z,3.23
2019-05-10T00:24:00.988Z,3.90
2019-05-10T00:26:05.861Z,2.57
2019-05-10T00:28:11.668Z,1.60
2019-05-10T00:30:16.417Z,2.87
2019-05-10T00:32:21.107Z,2.50
2019-05-10T00:34:25.814Z,2.50
2019-05-10T00:36:30.497Z,3.50
2019-05-10T00:38:35.260Z,2.50
2019-05-10T00:40:40.059Z,2.10
2019-05-10T00:42:44.805Z,1.50
2019-05-10T00:44:49.509Z,1.90
2019-05-10T00:46:54.256Z,2.80
2019-05-10T00:48:59.075Z,3.03
2019-05-10T00:51:03.834Z,3.90
2019-05-10T00:53:08.513Z,3.60
2019-05-10T00:55:18.756Z,3.03
2019-05-10T00:57:22.478Z,3.13
2019-05-10T00:59:31.219Z,3.50
2019-05-10T01:01:35.996Z,3.80
2019-05-10T01:03:40.747Z,3.30
2019-05-10T01:05:45.534Z,4.17
2019-05-10T01:07:50.204Z,4.07
2019-05-10T01:09:57.992Z,1.93
2019-05-10T01:12:02.747Z,2.00
2019-05-10T01:14:07.536Z,4.10
2019-05-10T01:16:12.301Z,2.83
2019-05-10T01:18:17.000Z,3.30
2019-05-10T01:20:21.796Z,3.17
2019-05-10T01:22:26.542Z,2.63
2019-05-10T01:24:31.320Z,3.63
2019-05-10T01:26:36.063Z,1.73
2019-05-10T01:28:40.745Z,3.77
2019-05-10T01:30:45.504Z,2.87
2019-05-10T01:32:50.414Z,1.70
2019-05-10T01:34:55.160Z,1.93
2019-05-10T01:37:00.147Z,1.97
2019-05-10T01:39:05.604Z,4.13
2019-05-10T01:41:10.377Z,1.90
2019-05-10T01:43:15.128Z,2.40
2019-05-10T01:45:19.829Z,3.07
2019-05-10T01:47:24.606Z,1.77
2019-05-10T01:49:29.376Z,2.47
2019-05-10T01:51:34.539Z,2.93
2019-05-10T01:53:39.207Z,3.50
2019-05-10T01:55:52.075Z,3.53
2019-05-10T01:57:50.301Z,3.97
2019-05-10T01:59:54.992Z,4.33
2019-05-10T02:01:59.763Z,4.10
2019-05-10T02:04:04.449Z,3.90
2019-05-10T02:06:09.180Z,5.40
2019-05-10T02:08:13.875Z,4.50
2019-05-10T02:10:18.558Z,5.47
2019-05-10T02:12:23.269Z,5.90
2019-05-10T02:14:28.038Z,6.50
2019-05-10T02:16:32.719Z,4.77
2019-05-10T02:18:37.497Z,6.30
2019-05-10T02:20:42.193Z,5.17
2019-05-10T02:22:46.958Z,5.77
2019-05-10T02:24:51.743Z,5.40
2019-05-10T02:26:56.427Z,6.00
2019-05-10T02:29:02.165Z,5.97
2019-05-10T02:31:06.838Z,6.97
2019-05-10T02:33:11.615Z,7.03
2019-05-10T02:35:16.337Z,7.00
2019-05-10T02:37:21.074Z,7.07
2019-05-10T02:39:25.859Z,5.37
2019-05-10T02:41:30.616Z,6.93
2019-05-10T02:43:35.402Z,5.10
2019-05-10T02:45:40.153Z,6.33
2019-05-10T02:47:44.949Z,6.90
2019-05-10T02:49:49.703Z,5.97
2019-05-10T02:51:54.481Z,7.27
2019-05-10T02:53:59.317Z,9.70
2019-05-10T02:56:29.586Z,6.27
2019-05-10T02:58:22.690Z,4.83
2019-05-10T03:00:27.450Z,5.90
2019-05-10T03:02:32.297Z,7.63
2019-05-10T03:04:37.645Z,5.93
2019-05-10T03:06:47.059Z,6.23
2019-05-10T03:08:52.161Z,6.43
2019-05-10T03:10:57.562Z,4.93
2019-05-10T03:13:03.462Z,4.33
2019-05-10T03:15:08.590Z,5.00
2019-05-10T03:17:13.360Z,6.10
2019-05-10T03:19:19.574Z,5.47
2019-05-10T03:21:24.423Z,5.20
2019-05-10T03:23:29.869Z,4.10
2019-05-10T03:25:34.634Z,6.67
2019-05-10T03:27:39.567Z,4.90
2019-05-10T03:29:44.974Z,4.13
2019-05-10T03:31:49.725Z,6.17
2019-05-10T03:33:57.964Z,5.27
2019-05-10T03:36:02.775Z,6.20
2019-05-10T03:38:09.481Z,4.67
2019-05-10T03:40:14.290Z,5.50
2019-05-10T03:42:19.074Z,3.97
2019-05-10T03:44:24.895Z,7.20
2019-05-10T03:46:29.678Z,3.50
2019-05-10T03:48:34.487Z,6.03
2019-05-10T03:50:39.378Z,6.10
2019-05-10T03:52:44.146Z,4.87
2019-05-10T03:54:52.077Z,4.27
2019-05-10T03:57:12.422Z,8.43
2019-05-10T03:59:04.285Z,6.13
2019-05-10T04:01:09.011Z,5.23
2019-05-10T04:03:17.691Z,7.87
2019-05-10T04:05:28.130Z,4.10
2019-05-10T04:07:32.884Z,3.67
2019-05-10T04:09:37.683Z,7.10
2019-05-10T04:11:42.461Z,5.93
2019-05-10T04:13:47.219Z,7.50
2019-05-10T04:15:54.468Z,5.17
2019-05-10T04:17:59.236Z,4.53
2019-05-10T04:20:06.221Z,5.07
2019-05-10T04:22:14.078Z,7.43
2019-05-10T04:24:19.927Z,5.03
2019-05-10T04:26:24.729Z,7.73
2019-05-10T04:28:32.471Z,7.33
2019-05-10T04:30:37.249Z,7.10
2019-05-10T04:32:42.113Z,5.20
2019-05-10T04:34:46.842Z,7.17
2019-05-10T04:36:51.728Z,5.37
2019-05-10T04:38:57.224Z,5.73
2019-05-10T04:41:01.998Z,4.23
2019-05-10T04:43:06.768Z,4.73
2019-05-10T04:45:11.569Z,5.20
2019-05-10T04:47:16.331Z,5.10
2019-05-10T04:49:21.100Z,4.47
2019-05-10T04:51:25.871Z,4.07
2019-05-10T04:53:30.646Z,5.23
2019-05-10T04:55:38.945Z,5.47
2019-05-10T04:57:50.417Z,4.50
2019-05-10T04:59:50.157Z,4.20
2019-05-10T05:01:55.360Z,4.20
2019-05-10T05:04:00.098Z,4.00
2019-05-10T05:06:04.874Z,4.13
2019-05-10T05:08:10.762Z,3.57
2019-05-10T05:10:15.442Z,3.53
2019-05-10T05:12:20.223Z,6.27
2019-05-10T05:14:24.992Z,3.77
2019-05-10T05:16:29.775Z,4.63
2019-05-10T05:18:34.547Z,3.47
2019-05-10T05:20:39.298Z,2.63
2019-05-10T05:22:47.008Z,3.33
2019-05-10T05:24:55.270Z,2.83
2019-05-10T05:27:01.158Z,2.67
2019-05-10T05:29:05.895Z,2.70
2019-05-10T05:31:10.671Z,3.57
2019-05-10T05:33:15.514Z,3.53
2019-05-10T05:35:20.369Z,2.30
2019-05-10T05:37:25.232Z,3.30
2019-05-10T05:39:30.007Z,5.33
2019-05-10T05:41:47.629Z,2.50
2019-05-10T05:43:46.425Z,2.67
2019-05-10T05:46:02.688Z,2.67
2019-05-10T05:48:07.486Z,1.50
2019-05-10T05:50:12.167Z,2.40
2019-05-10T05:52:17.006Z,2.00
2019-05-10T05:54:22.662Z,2.10
2019-05-10T05:56:29.176Z,4.23
2019-05-10T05:58:38.130Z,3.10
2019-05-10T06:00:46.595Z,3.13
2019-05-10T06:02:50.189Z,4.03
2019-05-10T06:04:54.859Z,3.63
2019-05-10T06:07:00.581Z,2.43
2019-05-10T06:09:07.353Z,2.90
2019-05-10T06:11:13.664Z,3.27
2019-05-10T06:13:23.559Z,2.27
2019-05-10T06:15:28.940Z,3.63
2019-05-10T06:17:31.707Z,4.20
2019-05-10T06:19:36.699Z,4.10
2019-05-10T06:21:41.411Z,4.13
2019-05-10T06:23:46.853Z,3.13
2019-05-10T06:25:51.731Z,4.07
2019-05-10T06:28:00.487Z,4.23
2019-05-10T06:30:06.312Z,4.70
2019-05-10T06:32:11.049Z,4.13
2019-05-10T06:34:15.754Z,6.40
2019-05-10T06:36:20.431Z,5.33
2019-05-10T06:38:25.176Z,4.97
2019-05-10T06:40:34.775Z,4.73
2019-05-10T06:42:36.353Z,1.83
2019-05-10T06:44:41.123Z,3.13
2019-05-10T06:46:46.466Z,3.90
2019-05-10T06:48:51.258Z,3.30
2019-05-10T06:51:02.824Z,3.53
2019-05-10T06:53:10.975Z,3.57
2019-05-10T06:55:11.837Z,3.07
2019-05-10T06:57:17.536Z,3.00
2019-05-10T06:59:24.817Z,2.53
2019-05-10T07:01:29.421Z,4.73
2019-05-10T07:03:34.196Z,3.00
2019-05-10T07:05:38.899Z,3.60
2019-05-10T07:07:45.419Z,3.30
2019-05-10T07:10:13.150Z,4.23
2019-05-10T07:11:56.416Z,4.70
2019-05-10T07:14:01.170Z,3.70
2019-05-10T07:16:06.074Z,4.20
2019-05-10T07:18:10.811Z,4.07
2019-05-10T07:20:15.619Z,5.30
2019-05-10T07:22:26.781Z,3.13
2019-05-10T07:24:30.582Z,4.57
2019-05-10T07:26:35.442Z,4.30
2019-05-10T07:28:40.189Z,3.93
2019-05-10T07:30:46.262Z,3.70
2019-05-10T07:32:54.668Z,3.60
2019-05-10T07:35:00.761Z,5.10
2019-05-10T07:37:06.964Z,3.33
2019-05-10T07:39:14.468Z,3.70
2019-05-10T07:41:25.661Z,3.30
2019-05-10T07:43:28.709Z,3.77
2019-05-10T07:45:32.048Z,4.43
2019-05-10T07:47:36.754Z,4.30
2019-05-10T07:49:41.510Z,3.33
2019-05-10T07:51:47.937Z,3.33
2019-05-10T07:53:56.987Z,2.87
2019-05-10T07:56:00.001Z,3.33
2019-05-10T07:58:07.040Z,2.30
2019-05-10T08:00:12.008Z,2.00
2019-05-10T08:02:16.839Z,2.60
2019-05-10T08:04:28.918Z,2.27
2019-05-10T08:06:31.913Z,2.77
2019-05-10T08:08:34.670Z,2.70
2019-05-10T08:10:39.542Z,3.07
2019-05-10T08:12:45.785Z,1.47
2019-05-10T08:14:53.807Z,1.90
2019-05-10T08:17:05.929Z,1.73
2019-05-10T08:19:05.044Z,2.27
2019-05-10T08:21:21.631Z,2.33
2019-05-10T08:23:23.789Z,1.30
2019-05-10T08:25:29.282Z,3.07
2019-05-10T08:27:33.285Z,1.83
2019-05-10T08:29:38.059Z,1.37
2019-05-10T08:31:50.601Z,1.17
2019-05-10T08:33:56.199Z,1.40
2019-05-10T08:36:00.666Z,1.63
2019-05-10T08:38:04.615Z,1.37
2019-05-10T08:40:09.425Z,4.23
2019-05-10T08:42:32.605Z,1.27
2019-05-10T08:44:21.792Z,2.97
2019-05-10T08:46:37.369Z,1.30
2019-05-10T08:48:38.208Z,2.53
2019-05-10T08:50:50.665Z,1.00
2019-05-10T08:52:46.236Z,0.87
2019-05-10T08:54:54.973Z,1.80
2019-05-10T08:57:01.234Z,0.87
2019-05-10T08:59:04.086Z,1.63
2019-05-10T09:01:20.414Z,0.93
2019-05-10T09:03:18.601Z,2.10
2019-05-10T09:05:28.929Z,1.47
2019-05-10T09:07:29.437Z,1.30
2019-05-10T09:09:45.627Z,2.87
2019-05-10T09:11:44.158Z,1.30
2019-05-10T09:13:53.477Z,4.67
2019-05-10T09:15:57.695Z,1.60
2019-05-10T09:18:07.386Z,1.53
2019-05-10T09:20:12.048Z,2.67
2019-05-10T09:22:16.284Z,1.60
2019-05-10T09:24:22.893Z,1.20
2019-05-10T09:26:27.715Z,1.40
2019-05-10T09:28:32.494Z,1.30
2019-05-10T09:30:37.181Z,1.27
2019-05-10T09:32:43.444Z,1.87
2019-05-10T09:34:48.312Z,2.03
2019-05-10T09:36:53.097Z,1.50
2019-05-10T09:39:03.396Z,1.63
2019-05-10T09:41:08.282Z,1.40
2019-05-10T09:43:14.955Z,1.23
2019-05-10T09:45:21.896Z,1.43
2019-05-10T09:47:25.831Z,1.40
2019-05-10T09:49:33.064Z,1.10
2019-05-10T09:51:38.665Z,1.17
2019-05-10T09:53:43.410Z,1.03
2019-05-10T09:55:55.092Z,2.10
2019-05-10T09:57:54.489Z,1.10
2019-05-10T09:59:59.270Z,1.13
2019-05-10T10:02:04.951Z,1.83
2019-05-10T10:04:10.378Z,1.30
2019-05-10T10:06:15.408Z,1.50
2019-05-10T10:08:22.896Z,1.30
2019-05-10T10:10:31.940Z,1.47
2019-05-10T10:12:37.281Z,2.80
2019-05-10T10:14:43.200Z,1.50
2019-05-10T10:16:57.807Z,2.63
2019-05-10T10:18:54.380Z,0.83
2019-05-10T10:20:59.145Z,2.80
2019-05-10T10:23:03.944Z,1.50
2019-05-10T10:25:11.558Z,2.07
2019-05-10T10:27:17.160Z,2.70
2019-05-10T10:29:28.763Z,2.30
2019-05-10T10:31:33.495Z,2.20
2019-05-10T10:33:38.596Z,1.83
2019-05-10T10:35:43.299Z,2.40
2019-05-10T10:37:48.043Z,2.30
2019-05-10T10:39:54.582Z,2.53
2019-05-10T10:42:05.836Z,2.53
2019-05-10T10:44:08.120Z,2.43
2019-05-10T10:46:12.699Z,3.43
2019-05-10T10:48:20.225Z,1.93
2019-05-10T10:50:27.373Z,4.50
2019-05-10T10:52:31.739Z,2.83
2019-05-10T10:54:39.673Z,2.13
2019-05-10T10:56:42.902Z,3.27
2019-05-10T10:58:49.920Z,2.47
2019-05-10T11:00:54.010Z,2.23
2019-05-10T11:02:59.051Z,1.93
2019-05-10T11:05:06.691Z,3.37
2019-05-10T11:07:11.545Z,3.43
2019-05-10T11:09:16.275Z,2.47
2019-05-10T11:11:21.155Z,2.90
2019-05-10T11:13:41.637Z,3.73
2019-05-10T11:15:35.948Z,3.83
2019-05-10T11:17:40.742Z,3.40
2019-05-10T11:19:45.173Z,3.10
2019-05-10T11:21:51.588Z,2.57
2019-05-10T11:24:01.391Z,3.00
2019-05-10T11:26:05.609Z,3.70
2019-05-10T11:28:12.087Z,5.17
2019-05-10T11:30:16.863Z,3.00
2019-05-10T11:32:21.715Z,4.10
2019-05-10T11:34:29.364Z,4.40
2019-05-10T11:36:33.043Z,4.43
2019-05-10T11:38:37.750Z,4.53
2019-05-10T11:40:42.496Z,2.97
2019-05-10T11:42:47.756Z,3.57
2019-05-10T11:44:54.493Z,3.80
2019-05-10T11:47:01.491Z,3.20
2019-05-10T11:49:06.675Z,3.57
2019-05-10T11:51:17.154Z,2.20
2019-05-10T11:53:17.970Z,3.10
2019-05-10T11:55:23.198Z,5.13
2019-05-10T11:57:32.934Z,2.70
2019-05-10T11:59:38.687Z,2.73
2019-05-10T12:01:42.284Z,1.47
2019-05-10T12:03:47.099Z,1.70
2019-05-10T12:07:58.202Z,2.10
2019-05-10T12:10:16.941Z,2.10
2019-05-10T12:12:12.258Z,2.80
2019-05-10T12:14:16.445Z,2.37
2019-05-10T12:16:24.356Z,2.83
2019-05-10T12:18:32.418Z,2.73
2019-05-10T12:20:52.063Z,3.20
2019-05-10T12:22:47.122Z,2.63
2019-05-10T12:25:14.093Z,2.60
2019-05-10T12:26:27.086Z,2.27
2019-05-10T12:29:11.507Z,2.60
2019-05-10T12:31:15.151Z,2.63
2019-05-10T12:33:23.966Z,2.13
2019-05-10T12:35:21.522Z,2.83
2019-05-10T12:37:26.283Z,2.30
2019-05-10T12:39:32.669Z,2.20
2019-05-10T12:41:39.855Z,1.90
2019-05-10T12:43:43.822Z,1.97
2019-05-10T12:45:48.637Z,2.20
2019-05-10T12:47:54.362Z,2.47
2019-05-10T12:50:01.981Z,1.80
2019-05-10T12:52:09.196Z,2.17
2019-05-10T12:54:18.534Z,2.00
2019-05-10T12:56:21.273Z,2.73
2019-05-10T12:58:26.043Z,2.53
2019-05-10T13:00:30.787Z,2.30
2019-05-10T13:02:38.353Z,2.57
2019-05-10T13:04:47.064Z,3.20
2019-05-10T13:06:49.556Z,2.47
2019-05-10T13:08:54.353Z,2.50
2019-05-10T13:11:00.721Z,2.20
2019-05-10T13:13:06.465Z,2.30
2019-05-10T13:15:11.263Z,2.33
2019-05-10T13:17:17.069Z,3.50
2019-05-10T13:19:22.201Z,3.10
2019-05-10T13:21:30.125Z,3.20
2019-05-10T13:23:33.333Z,4.50
2019-05-10T13:25:38.439Z,3.87
2019-05-10T13:27:43.185Z,2.87
2019-05-10T13:29:53.286Z,3.97
2019-05-10T13:31:57.037Z,3.03
2019-05-10T13:34:02.027Z,4.00
2019-05-10T13:36:06.739Z,3.50
2019-05-10T13:38:11.766Z,4.37
2019-05-10T13:40:16.515Z,4.10
2019-05-10T13:42:21.295Z,3.90
2019-05-10T13:44:26.057Z,3.87
2019-05-10T13:46:30.916Z,3.10
2019-05-10T13:48:35.658Z,2.70
2019-05-10T13:50:40.485Z,2.90
2019-05-10T13:52:45.265Z,2.73
2019-05-10T13:54:50.124Z,3.50
2019-05-10T13:56:55.121Z,2.63
2019-05-10T13:59:13.776Z,2.97
2019-05-10T14:01:12.365Z,1.97
2019-05-10T14:03:13.576Z,2.50
2019-05-10T14:05:19.981Z,2.13
2019-05-10T14:07:24.862Z,1.80
2019-05-10T14:09:29.546Z,1.37
2019-05-10T14:11:40.261Z,1.57
2019-05-10T14:13:41.358Z,2.07
2019-05-10T14:15:47.736Z,1.30
2019-05-10T14:17:52.513Z,3.00
2019-05-10T14:19:57.229Z,1.50
2019-05-10T14:22:02.067Z,1.10
2019-05-10T14:24:15.092Z,1.20
2019-05-10T14:26:18.185Z,1.10
2019-05-10T14:28:22.616Z,1.37
2019-05-10T14:30:27.317Z,1.20
2019-05-10T14:32:32.108Z,1.23
2019-05-10T14:34:44.132Z,0.90
2019-05-10T14:36:43.577Z,1.23
2019-05-10T14:38:53.748Z,1.30
2019-05-10T14:40:56.051Z,1.10
2019-05-10T14:43:00.764Z,1.30
2019-05-10T14:45:09.079Z,1.57
2019-05-10T14:47:13.896Z,1.30
2019-05-10T14:49:18.608Z,1.77
2019-05-10T14:51:37.835Z,1.30
2019-05-10T14:53:29.722Z,1.20
2019-05-10T14:55:36.821Z,1.37
2019-05-10T14:57:40.914Z,1.30
2019-05-10T14:59:45.775Z,1.70
2019-05-10T15:01:50.610Z,2.10
2019-05-10T15:03:56.217Z,1.67
2019-05-10T15:06:01.679Z,1.93
2019-05-10T15:08:06.685Z,1.70
2019-05-10T15:10:11.465Z,2.00
2019-05-10T15:12:21.968Z,1.67
2019-05-10T15:14:22.731Z,2.33
2019-05-10T15:16:30.788Z,2.10
2019-05-10T15:18:33.798Z,2.00
2019-05-10T15:20:38.538Z,2.03
2019-05-10T15:22:43.283Z,2.57
2019-05-10T15:24:47.983Z,1.80
2019-05-10T15:26:52.759Z,1.67
2019-05-10T15:28:57.545Z,1.60
2019-05-10T15:31:02.299Z,1.47
2019-05-10T15:33:07.033Z,2.03
2019-05-10T15:35:14.485Z,1.20
2019-05-10T15:37:19.253Z,1.50
2019-05-10T15:39:28.668Z,2.37
2019-05-10T15:41:31.623Z,1.67
2019-05-10T15:43:36.560Z,2.00
2019-05-10T15:45:45.808Z,2.27
2019-05-10T15:47:52.056Z,2.03
2019-05-10T15:49:54.481Z,1.30
2019-05-10T15:52:16.953Z,1.17
2019-05-10T15:54:09.669Z,1.27
2019-05-10T15:56:14.557Z,1.20
2019-05-10T15:58:22.133Z,1.50
2019-05-10T16:00:37.386Z,1.30
2019-05-10T16:02:36.244Z,2.83
2019-05-10T16:04:41.017Z,1.63
2019-05-10T16:06:45.803Z,1.73
2019-05-10T16:08:54.363Z,1.50
2019-05-10T16:11:00.571Z,1.50
2019-05-10T16:13:08.819Z,1.47
2019-05-10T16:15:20.215Z,2.47
2019-05-10T16:17:25.519Z,1.70
2019-05-10T16:19:35.331Z,1.63
2019-05-10T16:21:51.360Z,2.00
2019-05-10T16:23:53.399Z,1.80
2019-05-10T16:26:00.207Z,1.90
2019-05-10T16:28:15.380Z,2.17
2019-05-10T16:30:22.140Z,1.90
2019-05-10T16:32:29.262Z,1.70
2019-05-10T16:34:35.165Z,1.93
2019-05-10T16:36:39.971Z,1.93
2019-05-10T16:38:44.734Z,2.50
2019-05-10T16:40:58.525Z,2.07
2019-05-10T16:42:58.960Z,2.33
2019-05-10T16:45:03.747Z,2.50
2019-05-10T16:47:11.468Z,2.97
2019-05-10T16:49:17.384Z,3.87
2019-05-10T16:51:22.103Z,2.40
2019-05-10T16:53:27.359Z,3.93
2019-05-10T16:55:35.443Z,2.57
2019-05-10T16:57:41.256Z,2.93
2019-05-10T16:59:46.561Z,2.50
2019-05-10T17:01:51.779Z,3.10
2019-05-10T17:03:59.844Z,3.20
2019-05-10T17:06:04.219Z,2.50
2019-05-10T17:08:09.846Z,2.47
2019-05-10T17:10:15.611Z,2.30
2019-05-10T17:12:21.970Z,2.50
2019-05-10T17:14:31.098Z,2.97
2019-05-10T17:16:38.694Z,2.70
2019-05-10T17:18:43.596Z,2.43
2019-05-10T17:20:50.966Z,3.33
2019-05-10T17:23:07.972Z,6.17
2019-05-10T17:25:03.269Z,2.37
2019-05-10T17:27:08.563Z,2.93
2019-05-10T17:29:14.766Z,3.87
2019-05-10T17:31:20.671Z,3.13
2019-05-10T17:33:25.370Z,2.47
2019-05-10T17:35:30.136Z,2.60
2019-05-10T17:37:35.822Z,3.23
2019-05-10T17:39:42.239Z,2.73
2019-05-10T17:41:46.994Z,2.90
2019-05-10T17:43:53.416Z,2.63
2019-05-10T17:45:58.171Z,2.87
2019-05-10T17:48:03.411Z,3.13
2019-05-10T17:50:09.667Z,2.67
2019-05-10T17:52:14.344Z,3.00
2019-05-10T17:54:19.129Z,4.30
2019-05-10T17:56:23.877Z,2.80
2019-05-10T17:58:33.653Z,2.97
2019-05-10T18:00:35.047Z,2.47
2019-05-10T18:02:40.097Z,2.90
2019-05-10T18:04:44.896Z,3.00
2019-05-10T18:06:49.675Z,3.50
2019-05-10T18:08:54.494Z,3.10
2019-05-10T18:11:03.920Z,4.07
2019-05-10T18:13:05.658Z,3.83
2019-05-10T18:15:10.443Z,3.37
2019-05-10T18:17:15.181Z,3.10
2019-05-10T18:19:24.863Z,5.43
2019-05-10T18:21:26.281Z,2.93
2019-05-10T18:23:31.065Z,4.93
2019-05-10T18:25:37.473Z,7.00
2019-05-10T18:27:42.166Z,6.67
2019-05-10T18:29:48.031Z,7.20
2019-05-10T18:31:55.766Z,5.43
2019-05-10T18:34:02.232Z,5.63
2019-05-10T18:36:12.819Z,5.40
2019-05-10T18:38:17.575Z,4.20
2019-05-10T18:40:25.106Z,3.77
2019-05-10T18:42:28.699Z,4.20
2019-05-10T18:44:33.406Z,3.70
2019-05-10T18:46:38.162Z,3.80
2019-05-10T18:48:42.952Z,3.10
2019-05-10T18:50:47.734Z,3.10
2019-05-10T18:52:52.498Z,3.20
2019-05-10T18:55:00.299Z,2.87
2019-05-10T18:57:12.046Z,3.80
2019-05-10T18:59:11.442Z,3.37
2019-05-10T19:01:16.271Z,3.10
2019-05-10T19:03:20.954Z,2.77
2019-05-10T19:05:41.454Z,2.80
2019-05-10T19:07:47.152Z,2.50
2019-05-10T19:09:51.936Z,4.17
2019-05-10T19:11:57.202Z,4.07
2019-05-10T19:14:04.746Z,5.23
2019-05-10T19:16:08.323Z,5.00
2019-05-10T19:18:17.864Z,5.13
2019-05-10T19:20:19.513Z,5.33
2019-05-10T19:22:24.454Z,4.77
2019-05-10T19:24:30.580Z,4.53
2019-05-10T19:26:35.569Z,5.67
2019-05-10T19:28:40.338Z,4.43
2019-05-10T19:30:45.016Z,4.70
2019-05-10T19:32:56.445Z,5.30
2019-05-10T19:35:01.951Z,4.67
2019-05-10T19:37:06.802Z,5.20
2019-05-10T19:39:11.628Z,3.43
2019-05-10T19:41:20.133Z,2.63
2019-05-10T19:43:23.964Z,3.53
2019-05-10T19:45:32.010Z,3.13
2019-05-10T19:47:36.788Z,3.27
2019-05-10T19:49:45.757Z,3.10
2019-05-10T19:51:50.459Z,3.37
2019-05-10T19:53:56.387Z,3.43
2019-05-10T19:56:04.042Z,3.43
2019-05-10T19:58:07.573Z,4.87
2019-05-10T20:00:12.310Z,4.53
2019-05-10T20:02:17.189Z,3.50
2019-05-10T20:04:24.707Z,5.00
2019-05-10T20:06:29.500Z,4.80
2019-05-10T20:08:34.243Z,3.90
2019-05-10T20:10:38.933Z,4.33
2019-05-10T20:12:43.663Z,4.73
2019-05-10T20:14:48.468Z,4.60
2019-05-10T20:16:53.568Z,4.90
2019-05-10T20:18:58.507Z,4.40
2019-05-10T20:21:03.172Z,4.07
2019-05-10T20:23:07.880Z,3.97
2019-05-10T20:25:12.703Z,3.80
2019-05-10T20:27:22.071Z,4.27
2019-05-10T20:29:46.211Z,5.20
2019-05-10T20:31:52.034Z,5.67
2019-05-10T20:33:56.789Z,4.83
2019-05-10T20:36:01.471Z,4.90
2019-05-10T20:38:06.184Z,4.37
2019-05-10T20:40:10.946Z,5.37
2019-05-10T20:42:18.355Z,5.80
2019-05-10T20:44:23.696Z,4.17
2019-05-10T20:46:28.495Z,6.33
2019-05-10T20:48:33.291Z,5.80
2019-05-10T20:50:39.158Z,6.57
2019-05-10T20:52:43.979Z,4.73
2019-05-10T20:54:48.836Z,4.90
2019-05-10T20:56:53.987Z,5.90
2019-05-10T20:59:01.746Z,5.17
2019-05-10T21:01:06.510Z,5.43
2019-05-10T21:03:11.335Z,6.53
2019-05-10T21:05:17.092Z,5.67
2019-05-10T21:07:21.771Z,5.63
2019-05-10T21:09:26.624Z,6.47
2019-05-10T21:11:31.370Z,6.93
2019-05-10T21:13:36.119Z,6.67
2019-05-10T21:15:40.886Z,5.50
2019-05-10T21:17:45.559Z,7.57
2019-05-10T21:19:50.376Z,5.93
2019-05-10T21:21:58.016Z,7.07
2019-05-10T21:24:02.769Z,7.43
2019-05-10T21:26:07.534Z,5.93
2019-05-10T21:28:12.278Z,6.57
2019-05-10T21:30:17.048Z,5.87
2019-05-10T21:32:21.780Z,6.10
2019-05-10T21:34:26.640Z,6.30
2019-05-10T21:36:31.390Z,5.43
2019-05-10T21:38:36.085Z,6.43
2019-05-10T21:40:40.888Z,7.30
2019-05-10T21:42:45.630Z,6.77
2019-05-10T21:44:50.437Z,6.43
2019-05-10T21:46:55.200Z,6.47
2019-05-10T21:49:00.021Z,5.53
2019-05-10T21:51:07.927Z,5.87
2019-05-10T21:53:12.643Z,7.53
2019-05-10T21:55:20.490Z,6.33
2019-05-10T21:57:25.211Z,5.47
2019-05-10T21:59:30.118Z,6.33
2019-05-10T22:01:35.860Z,5.90
2019-05-10T22:03:40.691Z,6.43
2019-05-10T22:05:45.454Z,6.53
2019-05-10T22:07:50.146Z,6.70
2019-05-10T22:09:54.897Z,6.63
2019-05-10T22:12:00.179Z,6.17
2019-05-10T22:14:05.047Z,6.40
2019-05-10T22:16:09.825Z,6.63
2019-05-10T22:18:14.539Z,6.10
2019-05-10T22:20:19.227Z,6.93
2019-05-10T22:22:23.986Z,6.73
2019-05-10T22:24:28.736Z,6.13
2019-05-10T22:26:33.515Z,7.03
2019-05-10T22:28:38.266Z,7.83
2019-05-10T22:30:43.183Z,6.77
2019-05-10T22:32:47.961Z,6.20
2019-05-10T22:34:52.629Z,6.77
2019-05-10T22:36:58.998Z,7.07
2019-05-10T22:39:07.530Z,6.00
2019-05-10T22:41:11.204Z,7.33
2019-05-10T22:43:16.066Z,9.13
2019-05-10T22:45:20.817Z,6.70
2019-05-10T22:47:25.692Z,6.13
2019-05-10T22:49:30.413Z,7.47
2019-05-10T22:51:35.072Z,6.57
2019-05-10T22:53:39.837Z,6.20
2019-05-10T22:55:47.452Z,8.67
2019-05-10T22:57:52.161Z,7.53
2019-05-10T22:59:57.867Z,6.30
2019-05-10T23:02:02.575Z,7.67
2019-05-10T23:04:07.330Z,7.00
2019-05-10T23:06:12.445Z,6.57
2019-05-10T23:08:17.214Z,7.93
2019-05-10T23:10:21.947Z,7.70
2019-05-10T23:12:26.631Z,7.93
2019-05-10T23:14:31.332Z,6.93
2019-05-10T23:16:36.118Z,8.20
2019-05-10T23:18:40.843Z,7.10
2019-05-10T23:20:45.604Z,7.60
2019-05-10T23:22:50.411Z,6.47
2019-05-10T23:24:55.163Z,7.80
2019-05-10T23:26:59.929Z,6.17
2019-05-10T23:29:04.689Z,6.83
2019-05-10T23:31:09.432Z,6.57
2019-05-10T23:33:14.148Z,7.37
2019-05-10T23:35:18.814Z,8.40
2019-05-10T23:37:23.588Z,7.13
2019-05-10T23:39:40.312Z,7.80
2019-05-10T23:41:34.776Z,9.40
2019-05-10T23:43:39.532Z,7.30
2019-05-10T23:45:44.279Z,7.70
2019-05-10T23:47:51.829Z,7.93
2019-05-10T23:49:58.156Z,8.13
2019-05-10T23:52:02.873Z,8.50
2019-05-10T23:54:10.606Z,8.40
2019-05-10T23:56:15.276Z,7.53
2019-05-10T23:58:22.670Z,8.10
